sensor_id;sensor_type;location;lat;lon;timestamp;temperature;humidity
12520;DHT22;6325;49.540;8.364;2023-08-06T00:00:30;17.20;99.90
12520;DHT22;6325;49.540;8.364;2023-08-06T00:02:57;16.70;99.90
12520;DHT22;6325;49.540;8.364;2023-08-06T00:05:24;17.50;99.90
12520;DHT22;6325;49.540;8.364;2023-08-06T00:07:51;17.20;99.90
12520;DHT22;6325;49.540;8.364;2023-08-06T00:10:17;17.00;99.90
12520;DHT22;6325;49.540;8.364;2023-08-06T00:12:44;16.70;99.90
12520;DHT22;6325;49.540;8.364;2023-08-06T00:15:12;17.10;99.90
12520;DHT22;6325;49.540;8.364;2023-08-06T00:17:39;17.50;99.90
12520;DHT22;6325;49.540;8.364;2023-08-06T00:20:07;17.50;99.90
12520;DHT22;6325;49.540;8.364;2023-08-06T00:22:35;17.00;99.90
12520;DHT22;6325;49.540;8.364;2023-08-06T00:25:03;17.50;99.90
12520;DHT22;6325;49.540;8.364;2023-08-06T00:27:30;17.10;99.90
12520;DHT22;6325;49.540;8.364;2023-08-06T00:29:58;17.50;99.90
12520;DHT22;6325;49.540;8.364;2023-08-06T00:32:26;17.00;99.90
12520;DHT22;6325;49.540;8.364;2023-08-06T00:34:52;16.50;99.90
12520;DHT22;6325;49.540;8.364;2023-08-06T00:37:19;17.30;99.90
12520;DHT22;6325;49.540;8.364;2023-08-06T00:39:46;16.90;99.90
12520;DHT22;6325;49.540;8.364;2023-08-06T00:42:13;17.20;99.90
12520;DHT22;6325;49.540;8.364;2023-08-06T00:44:39;16.40;99.90
12520;DHT22;6325;49.540;8.364;2023-08-06T00:47:07;16.90;99.90
12520;DHT22;6325;49.540;8.364;2023-08-06T00:49:36;17.00;99.90
12520;DHT22;6325;49.540;8.364;2023-08-06T00:52:04;16.30;99.90
12520;DHT22;6325;49.540;8.364;2023-08-06T00:54:31;17.30;99.90
12520;DHT22;6325;49.540;8.364;2023-08-06T00:56:59;17.20;99.90
12520;DHT22;6325;49.540;8.364;2023-08-06T00:59:27;16.70;99.90
12520;DHT22;6325;49.540;8.364;2023-08-06T01:01:54;16.70;99.90
12520;DHT22;6325;49.540;8.364;2023-08-06T01:04:22;17.00;99.90
12520;DHT22;6325;49.540;8.364;2023-08-06T01:07:01;16.30;99.90
12520;DHT22;6325;49.540;8.364;2023-08-06T01:09:36;17.40;99.90
12520;DHT22;6325;49.540;8.364;2023-08-06T01:12:09;16.80;99.90
12520;DHT22;6325;49.540;8.364;2023-08-06T01:14:58;16.80;99.90
12520;DHT22;6325;49.540;8.364;2023-08-06T01:17:28;16.80;99.90
12520;DHT22;6325;49.540;8.364;2023-08-06T01:19:56;16.90;99.90
12520;DHT22;6325;49.540;8.364;2023-08-06T01:22:24;16.70;99.90
12520;DHT22;6325;49.540;8.364;2023-08-06T01:24:52;17.00;99.90
12520;DHT22;6325;49.540;8.364;2023-08-06T01:27:25;16.60;99.90
12520;DHT22;6325;49.540;8.364;2023-08-06T01:29:59;16.70;99.90
12520;DHT22;6325;49.540;8.364;2023-08-06T01:32:30;17.20;99.90
12520;DHT22;6325;49.540;8.364;2023-08-06T01:34:59;16.60;99.90
12520;DHT22;6325;49.540;8.364;2023-08-06T01:37:28;17.40;99.90
12520;DHT22;6325;49.540;8.364;2023-08-06T01:39:55;16.90;99.90
12520;DHT22;6325;49.540;8.364;2023-08-06T01:42:21;16.70;99.90
12520;DHT22;6325;49.540;8.364;2023-08-06T01:44:48;16.90;99.90
12520;DHT22;6325;49.540;8.364;2023-08-06T01:47:15;16.50;99.90
12520;DHT22;6325;49.540;8.364;2023-08-06T01:49:42;17.20;99.90
12520;DHT22;6325;49.540;8.364;2023-08-06T01:52:08;16.90;99.90
12520;DHT22;6325;49.540;8.364;2023-08-06T01:54:36;16.80;99.90
12520;DHT22;6325;49.540;8.364;2023-08-06T01:57:04;17.30;99.90
12520;DHT22;6325;49.540;8.364;2023-08-06T01:59:31;16.80;99.90
12520;DHT22;6325;49.540;8.364;2023-08-06T02:01:57;17.10;99.90
12520;DHT22;6325;49.540;8.364;2023-08-06T02:04:24;16.90;99.90
12520;DHT22;6325;49.540;8.364;2023-08-06T02:06:51;16.60;99.90
12520;DHT22;6325;49.540;8.364;2023-08-06T02:09:17;17.40;99.90
12520;DHT22;6325;49.540;8.364;2023-08-06T02:11:45;16.60;99.90
12520;DHT22;6325;49.540;8.364;2023-08-06T02:14:12;16.80;99.90
12520;DHT22;6325;49.540;8.364;2023-08-06T02:16:39;17.20;99.90
12520;DHT22;6325;49.540;8.364;2023-08-06T02:19:06;17.10;99.90
12520;DHT22;6325;49.540;8.364;2023-08-06T02:21:32;17.00;99.90
12520;DHT22;6325;49.540;8.364;2023-08-06T02:23:59;16.30;99.90
12520;DHT22;6325;49.540;8.364;2023-08-06T02:26:26;17.30;99.90
12520;DHT22;6325;49.540;8.364;2023-08-06T02:28:54;16.40;99.90
12520;DHT22;6325;49.540;8.364;2023-08-06T02:31:21;16.70;99.90
12520;DHT22;6325;49.540;8.364;2023-08-06T02:33:48;16.80;99.90
12520;DHT22;6325;49.540;8.364;2023-08-06T02:36:14;16.70;99.90
12520;DHT22;6325;49.540;8.364;2023-08-06T02:38:41;17.30;99.90
12520;DHT22;6325;49.540;8.364;2023-08-06T02:41:08;17.20;99.90
12520;DHT22;6325;49.540;8.364;2023-08-06T02:43:34;17.10;99.90
12520;DHT22;6325;49.540;8.364;2023-08-06T02:46:03;16.40;99.90
12520;DHT22;6325;49.540;8.364;2023-08-06T02:48:29;16.80;99.90
12520;DHT22;6325;49.540;8.364;2023-08-06T02:50:57;17.20;99.90
12520;DHT22;6325;49.540;8.364;2023-08-06T02:53:25;16.70;99.90
12520;DHT22;6325;49.540;8.364;2023-08-06T02:55:52;17.30;99.90
12520;DHT22;6325;49.540;8.364;2023-08-06T02:58:19;16.70;99.90
12520;DHT22;6325;49.540;8.364;2023-08-06T03:00:59;17.00;99.90
12520;DHT22;6325;49.540;8.364;2023-08-06T03:03:27;16.70;99.90
12520;DHT22;6325;49.540;8.364;2023-08-06T03:05:54;16.70;99.90
12520;DHT22;6325;49.540;8.364;2023-08-06T03:08:21;16.60;99.90
12520;DHT22;6325;49.540;8.364;2023-08-06T03:10:48;16.30;99.90
12520;DHT22;6325;49.540;8.364;2023-08-06T03:13:15;17.30;99.90
12520;DHT22;6325;49.540;8.364;2023-08-06T03:15:41;16.70;99.90
12520;DHT22;6325;49.540;8.364;2023-08-06T03:18:08;16.40;99.90
12520;DHT22;6325;49.540;8.364;2023-08-06T03:20:36;16.40;99.90
12520;DHT22;6325;49.540;8.364;2023-08-06T03:23:03;16.60;99.90
12520;DHT22;6325;49.540;8.364;2023-08-06T03:25:30;16.70;99.90
12520;DHT22;6325;49.540;8.364;2023-08-06T03:27:56;16.70;99.90
12520;DHT22;6325;49.540;8.364;2023-08-06T03:30:23;16.70;99.90
12520;DHT22;6325;49.540;8.364;2023-08-06T03:32:50;16.60;99.90
12520;DHT22;6325;49.540;8.364;2023-08-06T03:35:17;16.60;99.90
12520;DHT22;6325;49.540;8.364;2023-08-06T03:37:45;16.70;99.90
12520;DHT22;6325;49.540;8.364;2023-08-06T03:40:11;16.30;99.90
12520;DHT22;6325;49.540;8.364;2023-08-06T03:42:38;17.00;99.90
12520;DHT22;6325;49.540;8.364;2023-08-06T03:45:06;16.70;99.90
12520;DHT22;6325;49.540;8.364;2023-08-06T03:47:33;16.50;99.90
12520;DHT22;6325;49.540;8.364;2023-08-06T03:50:00;16.40;99.90
12520;DHT22;6325;49.540;8.364;2023-08-06T03:52:27;16.60;99.90
12520;DHT22;6325;49.540;8.364;2023-08-06T03:54:55;16.50;99.90
12520;DHT22;6325;49.540;8.364;2023-08-06T03:57:21;16.50;99.90
12520;DHT22;6325;49.540;8.364;2023-08-06T03:59:48;16.30;99.90
12520;DHT22;6325;49.540;8.364;2023-08-06T04:02:15;16.50;99.90
12520;DHT22;6325;49.540;8.364;2023-08-06T04:04:42;16.50;99.90
12520;DHT22;6325;49.540;8.364;2023-08-06T04:07:08;16.10;99.90
12520;DHT22;6325;49.540;8.364;2023-08-06T04:09:52;16.60;99.90
12520;DHT22;6325;49.540;8.364;2023-08-06T04:12:20;16.50;99.90
12520;DHT22;6325;49.540;8.364;2023-08-06T04:14:46;16.40;99.90
12520;DHT22;6325;49.540;8.364;2023-08-06T04:17:13;16.60;99.90
12520;DHT22;6325;49.540;8.364;2023-08-06T04:19:40;16.60;99.90
12520;DHT22;6325;49.540;8.364;2023-08-06T04:22:07;16.60;99.90
12520;DHT22;6325;49.540;8.364;2023-08-06T04:24:33;16.80;99.90
12520;DHT22;6325;49.540;8.364;2023-08-06T04:27:00;17.10;99.90
12520;DHT22;6325;49.540;8.364;2023-08-06T04:29:28;16.40;99.90
12520;DHT22;6325;49.540;8.364;2023-08-06T04:31:55;17.00;99.90
12520;DHT22;6325;49.540;8.364;2023-08-06T04:34:21;16.10;99.90
12520;DHT22;6325;49.540;8.364;2023-08-06T04:36:48;16.60;99.90
12520;DHT22;6325;49.540;8.364;2023-08-06T04:39:15;16.60;99.90
12520;DHT22;6325;49.540;8.364;2023-08-06T04:41:42;16.70;99.90
12520;DHT22;6325;49.540;8.364;2023-08-06T04:44:09;16.50;99.90
12520;DHT22;6325;49.540;8.364;2023-08-06T04:46:37;16.60;99.90
12520;DHT22;6325;49.540;8.364;2023-08-06T04:49:03;16.60;99.90
12520;DHT22;6325;49.540;8.364;2023-08-06T04:51:30;17.10;99.90
12520;DHT22;6325;49.540;8.364;2023-08-06T04:53:57;16.60;99.90
12520;DHT22;6325;49.540;8.364;2023-08-06T04:56:24;16.60;99.90
12520;DHT22;6325;49.540;8.364;2023-08-06T04:58:51;16.60;99.90
12520;DHT22;6325;49.540;8.364;2023-08-06T05:01:18;16.50;99.90
12520;DHT22;6325;49.540;8.364;2023-08-06T05:03:47;16.20;99.90
12520;DHT22;6325;49.540;8.364;2023-08-06T05:06:13;16.50;99.90
12520;DHT22;6325;49.540;8.364;2023-08-06T05:08:40;16.50;99.90
12520;DHT22;6325;49.540;8.364;2023-08-06T05:11:07;16.20;99.90
12520;DHT22;6325;49.540;8.364;2023-08-06T05:13:34;16.50;99.90
12520;DHT22;6325;49.540;8.364;2023-08-06T05:16:00;16.60;99.90
12520;DHT22;6325;49.540;8.364;2023-08-06T05:18:27;17.10;99.90
12520;DHT22;6325;49.540;8.364;2023-08-06T05:20:57;17.00;99.90
12520;DHT22;6325;49.540;8.364;2023-08-06T05:23:24;17.20;99.90
12520;DHT22;6325;49.540;8.364;2023-08-06T05:25:50;16.60;99.90
12520;DHT22;6325;49.540;8.364;2023-08-06T05:28:17;16.50;99.90
12520;DHT22;6325;49.540;8.364;2023-08-06T05:30:44;16.40;99.90
12520;DHT22;6325;49.540;8.364;2023-08-06T05:33:10;16.50;99.90
12520;DHT22;6325;49.540;8.364;2023-08-06T05:35:37;16.50;99.90
12520;DHT22;6325;49.540;8.364;2023-08-06T05:38:05;16.60;99.90
12520;DHT22;6325;49.540;8.364;2023-08-06T05:40:33;16.50;99.90
12520;DHT22;6325;49.540;8.364;2023-08-06T05:43:00;16.70;99.90
12520;DHT22;6325;49.540;8.364;2023-08-06T05:45:27;16.70;99.90
12520;DHT22;6325;49.540;8.364;2023-08-06T05:47:53;16.20;99.90
12520;DHT22;6325;49.540;8.364;2023-08-06T05:50:23;16.60;99.90
12520;DHT22;6325;49.540;8.364;2023-08-06T05:52:50;16.60;99.90
12520;DHT22;6325;49.540;8.364;2023-08-06T05:55:19;16.60;99.90
12520;DHT22;6325;49.540;8.364;2023-08-06T05:57:46;16.60;99.90
12520;DHT22;6325;49.540;8.364;2023-08-06T06:00:13;16.70;99.90
12520;DHT22;6325;49.540;8.364;2023-08-06T06:02:40;16.70;99.90
12520;DHT22;6325;49.540;8.364;2023-08-06T06:05:08;17.20;99.90
12520;DHT22;6325;49.540;8.364;2023-08-06T06:07:34;17.30;99.90
12520;DHT22;6325;49.540;8.364;2023-08-06T06:10:01;17.30;99.90
12520;DHT22;6325;49.540;8.364;2023-08-06T06:12:29;16.70;99.90
12520;DHT22;6325;49.540;8.364;2023-08-06T06:14:56;17.30;99.90
12520;DHT22;6325;49.540;8.364;2023-08-06T06:17:23;16.70;99.90
12520;DHT22;6325;49.540;8.364;2023-08-06T06:19:50;16.70;99.90
12520;DHT22;6325;49.540;8.364;2023-08-06T06:22:16;16.70;99.90
12520;DHT22;6325;49.540;8.364;2023-08-06T06:24:43;16.60;99.90
12520;DHT22;6325;49.540;8.364;2023-08-06T06:27:10;16.60;99.90
12520;DHT22;6325;49.540;8.364;2023-08-06T06:29:38;16.60;99.90
12520;DHT22;6325;49.540;8.364;2023-08-06T06:32:06;16.60;99.90
12520;DHT22;6325;49.540;8.364;2023-08-06T06:34:32;16.60;99.90
12520;DHT22;6325;49.540;8.364;2023-08-06T06:36:59;16.60;99.90
12520;DHT22;6325;49.540;8.364;2023-08-06T06:39:26;16.60;99.90
12520;DHT22;6325;49.540;8.364;2023-08-06T06:41:53;16.60;99.90
12520;DHT22;6325;49.540;8.364;2023-08-06T06:44:19;17.20;99.90
12520;DHT22;6325;49.540;8.364;2023-08-06T06:46:47;16.70;99.90
12520;DHT22;6325;49.540;8.364;2023-08-06T06:49:14;16.20;99.90
12520;DHT22;6325;49.540;8.364;2023-08-06T06:51:41;16.70;99.90
12520;DHT22;6325;49.540;8.364;2023-08-06T06:54:08;16.70;99.90
12520;DHT22;6325;49.540;8.364;2023-08-06T06:56:34;16.70;99.90
12520;DHT22;6325;49.540;8.364;2023-08-06T06:59:01;16.70;99.90
12520;DHT22;6325;49.540;8.364;2023-08-06T07:01:28;17.00;99.90
12520;DHT22;6325;49.540;8.364;2023-08-06T07:03:56;16.50;99.90
12520;DHT22;6325;49.540;8.364;2023-08-06T07:06:23;16.90;99.90
12520;DHT22;6325;49.540;8.364;2023-08-06T07:08:50;17.10;99.90
12520;DHT22;6325;49.540;8.364;2023-08-06T07:11:17;16.90;99.90
12520;DHT22;6325;49.540;8.364;2023-08-06T07:13:44;16.90;99.90
12520;DHT22;6325;49.540;8.364;2023-08-06T07:16:10;16.90;99.90
12520;DHT22;6325;49.540;8.364;2023-08-06T07:18:37;16.90;99.90
12520;DHT22;6325;49.540;8.364;2023-08-06T07:21:05;17.00;99.90
12520;DHT22;6325;49.540;8.364;2023-08-06T07:23:32;16.90;99.90
12520;DHT22;6325;49.540;8.364;2023-08-06T07:25:59;16.90;99.90
12520;DHT22;6325;49.540;8.364;2023-08-06T07:28:25;17.20;99.90
12520;DHT22;6325;49.540;8.364;2023-08-06T07:30:52;16.80;99.90
12520;DHT22;6325;49.540;8.364;2023-08-06T07:33:19;17.40;99.90
12520;DHT22;6325;49.540;8.364;2023-08-06T07:35:46;17.40;99.90
12520;DHT22;6325;49.540;8.364;2023-08-06T07:38:14;17.80;99.90
12520;DHT22;6325;49.540;8.364;2023-08-06T07:40:40;17.00;99.90
12520;DHT22;6325;49.540;8.364;2023-08-06T07:43:07;17.20;99.90
12520;DHT22;6325;49.540;8.364;2023-08-06T07:45:34;17.40;99.90
12520;DHT22;6325;49.540;8.364;2023-08-06T07:48:01;17.90;99.90
12520;DHT22;6325;49.540;8.364;2023-08-06T07:50:28;17.30;99.90
12520;DHT22;6325;49.540;8.364;2023-08-06T07:52:55;17.30;99.90
12520;DHT22;6325;49.540;8.364;2023-08-06T07:55:23;17.10;99.90
12520;DHT22;6325;49.540;8.364;2023-08-06T07:57:50;17.30;99.90
12520;DHT22;6325;49.540;8.364;2023-08-06T08:00:16;17.40;99.90
12520;DHT22;6325;49.540;8.364;2023-08-06T08:02:43;17.60;99.90
12520;DHT22;6325;49.540;8.364;2023-08-06T08:05:11;17.30;99.90
12520;DHT22;6325;49.540;8.364;2023-08-06T08:07:38;17.90;99.90
12520;DHT22;6325;49.540;8.364;2023-08-06T08:10:06;18.00;99.90
12520;DHT22;6325;49.540;8.364;2023-08-06T08:12:34;17.60;99.90
12520;DHT22;6325;49.540;8.364;2023-08-06T08:15:01;17.70;99.90
12520;DHT22;6325;49.540;8.364;2023-08-06T08:17:28;17.90;99.90
12520;DHT22;6325;49.540;8.364;2023-08-06T08:19:55;18.00;99.90
12520;DHT22;6325;49.540;8.364;2023-08-06T08:22:22;18.20;99.90
12520;DHT22;6325;49.540;8.364;2023-08-06T08:24:48;18.30;99.90
12520;DHT22;6325;49.540;8.364;2023-08-06T08:27:15;18.40;99.90
12520;DHT22;6325;49.540;8.364;2023-08-06T08:29:43;18.00;99.90
12520;DHT22;6325;49.540;8.364;2023-08-06T08:32:10;18.40;99.90
12520;DHT22;6325;49.540;8.364;2023-08-06T08:34:37;18.30;99.90
12520;DHT22;6325;49.540;8.364;2023-08-06T08:37:04;18.70;99.90
12520;DHT22;6325;49.540;8.364;2023-08-06T08:39:31;18.40;99.90
12520;DHT22;6325;49.540;8.364;2023-08-06T08:41:58;18.60;99.90
12520;DHT22;6325;49.540;8.364;2023-08-06T08:44:25;18.50;99.90
12520;DHT22;6325;49.540;8.364;2023-08-06T08:46:56;18.00;99.90
12520;DHT22;6325;49.540;8.364;2023-08-06T08:49:24;18.50;99.90
12520;DHT22;6325;49.540;8.364;2023-08-06T08:51:53;18.00;99.90
12520;DHT22;6325;49.540;8.364;2023-08-06T08:54:23;18.60;99.90
12520;DHT22;6325;49.540;8.364;2023-08-06T08:56:50;18.30;99.90
12520;DHT22;6325;49.540;8.364;2023-08-06T08:59:17;18.30;99.90
12520;DHT22;6325;49.540;8.364;2023-08-06T09:01:46;18.30;99.90
12520;DHT22;6325;49.540;8.364;2023-08-06T09:04:18;17.90;99.90
12520;DHT22;6325;49.540;8.364;2023-08-06T09:06:47;18.30;99.90
12520;DHT22;6325;49.540;8.364;2023-08-06T09:09:17;19.00;99.90
12520;DHT22;6325;49.540;8.364;2023-08-06T09:11:48;18.30;99.90
12520;DHT22;6325;49.540;8.364;2023-08-06T09:14:16;18.70;99.90
12520;DHT22;6325;49.540;8.364;2023-08-06T09:16:43;18.50;99.90
12520;DHT22;6325;49.540;8.364;2023-08-06T09:19:10;19.00;99.90
12520;DHT22;6325;49.540;8.364;2023-08-06T09:21:39;18.20;99.90
12520;DHT22;6325;49.540;8.364;2023-08-06T09:24:10;18.60;99.90
12520;DHT22;6325;49.540;8.364;2023-08-06T09:26:37;18.90;99.90
12520;DHT22;6325;49.540;8.364;2023-08-06T09:29:05;18.50;99.90
12520;DHT22;6325;49.540;8.364;2023-08-06T09:31:33;19.00;99.90
12520;DHT22;6325;49.540;8.364;2023-08-06T09:34:00;18.20;99.90
12520;DHT22;6325;49.540;8.364;2023-08-06T09:36:27;18.50;99.90
12520;DHT22;6325;49.540;8.364;2023-08-06T09:38:55;19.10;99.90
12520;DHT22;6325;49.540;8.364;2023-08-06T09:41:28;19.00;99.90
12520;DHT22;6325;49.540;8.364;2023-08-06T09:43:55;19.10;99.90
12520;DHT22;6325;49.540;8.364;2023-08-06T09:46:22;19.50;99.90
12520;DHT22;6325;49.540;8.364;2023-08-06T09:48:50;18.70;99.90
12520;DHT22;6325;49.540;8.364;2023-08-06T09:51:17;18.80;99.90
12520;DHT22;6325;49.540;8.364;2023-08-06T09:53:44;18.90;99.90
12520;DHT22;6325;49.540;8.364;2023-08-06T09:56:13;18.40;99.90
12520;DHT22;6325;49.540;8.364;2023-08-06T09:58:42;18.30;99.90
12520;DHT22;6325;49.540;8.364;2023-08-06T10:01:10;18.20;99.90
12520;DHT22;6325;49.540;8.364;2023-08-06T10:03:38;17.70;99.90
12520;DHT22;6325;49.540;8.364;2023-08-06T10:06:05;18.60;99.90
12520;DHT22;6325;49.540;8.364;2023-08-06T10:08:34;18.10;99.90
12520;DHT22;6325;49.540;8.364;2023-08-06T10:11:02;18.20;99.90
12520;DHT22;6325;49.540;8.364;2023-08-06T10:13:32;17.80;99.90
12520;DHT22;6325;49.540;8.364;2023-08-06T10:16:00;18.20;99.90
12520;DHT22;6325;49.540;8.364;2023-08-06T10:18:28;18.20;99.90
12520;DHT22;6325;49.540;8.364;2023-08-06T10:20:55;18.20;99.90
12520;DHT22;6325;49.540;8.364;2023-08-06T10:23:33;18.50;99.90
12520;DHT22;6325;49.540;8.364;2023-08-06T10:26:00;18.60;99.90
12520;DHT22;6325;49.540;8.364;2023-08-06T10:28:36;17.80;99.90
12520;DHT22;6325;49.540;8.364;2023-08-06T10:31:04;18.00;99.90
12520;DHT22;6325;49.540;8.364;2023-08-06T10:33:41;18.00;99.90
12520;DHT22;6325;49.540;8.364;2023-08-06T10:36:10;18.00;99.90
12520;DHT22;6325;49.540;8.364;2023-08-06T10:38:44;17.90;99.90
12520;DHT22;6325;49.540;8.364;2023-08-06T10:41:15;18.00;99.90
12520;DHT22;6325;49.540;8.364;2023-08-06T10:43:47;18.00;99.90
12520;DHT22;6325;49.540;8.364;2023-08-06T10:46:23;18.00;99.90
12520;DHT22;6325;49.540;8.364;2023-08-06T10:48:49;18.00;99.90
12520;DHT22;6325;49.540;8.364;2023-08-06T10:51:17;17.60;99.90
12520;DHT22;6325;49.540;8.364;2023-08-06T10:53:45;18.10;99.90
12520;DHT22;6325;49.540;8.364;2023-08-06T10:56:12;18.10;99.90
12520;DHT22;6325;49.540;8.364;2023-08-06T10:58:39;18.10;99.90
12520;DHT22;6325;49.540;8.364;2023-08-06T11:01:07;18.00;99.90
12520;DHT22;6325;49.540;8.364;2023-08-06T11:03:34;18.00;99.90
12520;DHT22;6325;49.540;8.364;2023-08-06T11:06:01;18.10;99.90
12520;DHT22;6325;49.540;8.364;2023-08-06T11:08:32;18.00;99.90
12520;DHT22;6325;49.540;8.364;2023-08-06T11:11:08;18.10;99.90
12520;DHT22;6325;49.540;8.364;2023-08-06T11:13:34;18.20;99.90
12520;DHT22;6325;49.540;8.364;2023-08-06T11:16:01;18.80;99.90
12520;DHT22;6325;49.540;8.364;2023-08-06T11:18:30;18.30;99.90
12520;DHT22;6325;49.540;8.364;2023-08-06T11:20:58;18.50;99.90
12520;DHT22;6325;49.540;8.364;2023-08-06T11:23:26;19.00;99.90
12520;DHT22;6325;49.540;8.364;2023-08-06T11:25:53;19.00;99.90
12520;DHT22;6325;49.540;8.364;2023-08-06T11:28:20;19.50;99.90
12520;DHT22;6325;49.540;8.364;2023-08-06T11:30:47;19.30;99.90
12520;DHT22;6325;49.540;8.364;2023-08-06T11:33:14;19.40;99.90
12520;DHT22;6325;49.540;8.364;2023-08-06T11:35:42;19.40;99.90
12520;DHT22;6325;49.540;8.364;2023-08-06T11:38:09;19.50;99.90
12520;DHT22;6325;49.540;8.364;2023-08-06T11:40:36;19.20;99.90
12520;DHT22;6325;49.540;8.364;2023-08-06T11:43:03;19.60;99.90
12520;DHT22;6325;49.540;8.364;2023-08-06T11:45:30;19.30;99.90
12520;DHT22;6325;49.540;8.364;2023-08-06T11:47:57;19.40;99.90
12520;DHT22;6325;49.540;8.364;2023-08-06T11:50:24;19.40;99.90
12520;DHT22;6325;49.540;8.364;2023-08-06T11:52:56;18.90;99.90
12520;DHT22;6325;49.540;8.364;2023-08-06T11:55:24;18.90;99.90
12520;DHT22;6325;49.540;8.364;2023-08-06T11:57:51;19.20;99.90
12520;DHT22;6325;49.540;8.364;2023-08-06T12:00:18;18.50;99.90
12520;DHT22;6325;49.540;8.364;2023-08-06T12:02:48;19.00;99.90
12520;DHT22;6325;49.540;8.364;2023-08-06T12:05:17;19.10;99.90
12520;DHT22;6325;49.540;8.364;2023-08-06T12:07:47;19.20;99.90
12520;DHT22;6325;49.540;8.364;2023-08-06T12:10:15;18.50;99.90
12520;DHT22;6325;49.540;8.364;2023-08-06T12:12:45;18.50;99.90
12520;DHT22;6325;49.540;8.364;2023-08-06T12:15:11;19.60;99.90
12520;DHT22;6325;49.540;8.364;2023-08-06T12:17:39;19.00;99.90
12520;DHT22;6325;49.540;8.364;2023-08-06T12:20:06;18.90;99.90
12520;DHT22;6325;49.540;8.364;2023-08-06T12:22:34;19.30;99.90
12520;DHT22;6325;49.540;8.364;2023-08-06T12:25:01;19.50;99.90
12520;DHT22;6325;49.540;8.364;2023-08-06T12:27:30;19.10;99.90
12520;DHT22;6325;49.540;8.364;2023-08-06T12:29:56;18.90;99.90
12520;DHT22;6325;49.540;8.364;2023-08-06T12:32:25;19.10;99.90
12520;DHT22;6325;49.540;8.364;2023-08-06T12:34:52;19.00;99.90
12520;DHT22;6325;49.540;8.364;2023-08-06T12:37:19;19.10;99.90
12520;DHT22;6325;49.540;8.364;2023-08-06T12:39:46;18.90;99.90
12520;DHT22;6325;49.540;8.364;2023-08-06T12:42:13;19.00;99.90
12520;DHT22;6325;49.540;8.364;2023-08-06T12:44:41;18.90;99.90
12520;DHT22;6325;49.540;8.364;2023-08-06T12:47:08;19.40;99.90
12520;DHT22;6325;49.540;8.364;2023-08-06T12:49:35;18.50;99.90
12520;DHT22;6325;49.540;8.364;2023-08-06T12:52:02;18.80;99.90
12520;DHT22;6325;49.540;8.364;2023-08-06T12:54:31;18.90;99.90
12520;DHT22;6325;49.540;8.364;2023-08-06T12:57:02;18.80;99.90
12520;DHT22;6325;49.540;8.364;2023-08-06T12:59:29;19.00;99.90
12520;DHT22;6325;49.540;8.364;2023-08-06T13:01:57;18.50;99.90
12520;DHT22;6325;49.540;8.364;2023-08-06T13:04:23;18.30;99.90
12520;DHT22;6325;49.540;8.364;2023-08-06T13:06:50;18.20;99.90
12520;DHT22;6325;49.540;8.364;2023-08-06T13:09:17;17.80;99.90
12520;DHT22;6325;49.540;8.364;2023-08-06T13:11:44;18.30;99.90
12520;DHT22;6325;49.540;8.364;2023-08-06T13:14:13;18.80;99.90
12520;DHT22;6325;49.540;8.364;2023-08-06T13:16:42;17.80;99.90
12520;DHT22;6325;49.540;8.364;2023-08-06T13:19:11;17.90;99.90
12520;DHT22;6325;49.540;8.364;2023-08-06T13:21:59;18.20;99.90
12520;DHT22;6325;49.540;8.364;2023-08-06T13:24:26;18.20;99.90
12520;DHT22;6325;49.540;8.364;2023-08-06T13:26:53;18.50;99.90
12520;DHT22;6325;49.540;8.364;2023-08-06T13:29:21;18.90;99.90
12520;DHT22;6325;49.540;8.364;2023-08-06T13:31:47;18.40;99.90
12520;DHT22;6325;49.540;8.364;2023-08-06T13:34:16;18.40;99.90
12520;DHT22;6325;49.540;8.364;2023-08-06T13:36:43;18.10;99.90
12520;DHT22;6325;49.540;8.364;2023-08-06T13:39:10;18.60;99.90
12520;DHT22;6325;49.540;8.364;2023-08-06T13:41:37;18.40;99.90
12520;DHT22;6325;49.540;8.364;2023-08-06T13:44:04;18.30;99.90
12520;DHT22;6325;49.540;8.364;2023-08-06T13:46:32;18.20;99.90
12520;DHT22;6325;49.540;8.364;2023-08-06T13:48:58;18.20;99.90
12520;DHT22;6325;49.540;8.364;2023-08-06T13:51:26;18.10;99.90
12520;DHT22;6325;49.540;8.364;2023-08-06T13:53:54;18.30;99.90
12520;DHT22;6325;49.540;8.364;2023-08-06T13:56:22;18.80;99.90
12520;DHT22;6325;49.540;8.364;2023-08-06T13:58:49;18.20;99.90
12520;DHT22;6325;49.540;8.364;2023-08-06T14:01:17;18.20;99.90
12520;DHT22;6325;49.540;8.364;2023-08-06T14:03:44;18.10;99.90
12520;DHT22;6325;49.540;8.364;2023-08-06T14:06:11;18.20;99.90
12520;DHT22;6325;49.540;8.364;2023-08-06T14:08:39;18.10;99.90
12520;DHT22;6325;49.540;8.364;2023-08-06T14:11:06;18.10;99.90
12520;DHT22;6325;49.540;8.364;2023-08-06T14:13:32;18.10;99.90
12520;DHT22;6325;49.540;8.364;2023-08-06T14:15:59;17.50;99.90
12520;DHT22;6325;49.540;8.364;2023-08-06T14:18:26;18.60;99.90
12520;DHT22;6325;49.540;8.364;2023-08-06T14:20:53;18.60;99.90
12520;DHT22;6325;49.540;8.364;2023-08-06T14:23:19;17.50;99.90
12520;DHT22;6325;49.540;8.364;2023-08-06T14:25:48;18.60;99.90
12520;DHT22;6325;49.540;8.364;2023-08-06T14:28:15;18.50;99.90
12520;DHT22;6325;49.540;8.364;2023-08-06T14:30:41;18.40;99.90
12520;DHT22;6325;49.540;8.364;2023-08-06T14:33:08;18.00;99.90
12520;DHT22;6325;49.540;8.364;2023-08-06T14:35:35;17.70;99.90
12520;DHT22;6325;49.540;8.364;2023-08-06T14:38:02;18.60;99.90
12520;DHT22;6325;49.540;8.364;2023-08-06T14:40:28;18.10;99.90
12520;DHT22;6325;49.540;8.364;2023-08-06T14:43:00;17.60;99.90
12520;DHT22;6325;49.540;8.364;2023-08-06T14:45:28;18.00;99.90
12520;DHT22;6325;49.540;8.364;2023-08-06T14:47:54;17.70;99.90
12520;DHT22;6325;49.540;8.364;2023-08-06T14:50:21;18.00;99.90
12520;DHT22;6325;49.540;8.364;2023-08-06T14:52:48;18.20;99.90
12520;DHT22;6325;49.540;8.364;2023-08-06T14:55:22;18.20;99.90
12520;DHT22;6325;49.540;8.364;2023-08-06T14:57:49;17.70;99.90
12520;DHT22;6325;49.540;8.364;2023-08-06T15:00:17;18.10;99.90
12520;DHT22;6325;49.540;8.364;2023-08-06T15:02:44;17.80;99.90
12520;DHT22;6325;49.540;8.364;2023-08-06T15:05:11;18.80;99.90
12520;DHT22;6325;49.540;8.364;2023-08-06T15:07:38;18.40;99.90
12520;DHT22;6325;49.540;8.364;2023-08-06T15:10:05;18.30;99.90
12520;DHT22;6325;49.540;8.364;2023-08-06T15:12:32;17.80;99.90
12520;DHT22;6325;49.540;8.364;2023-08-06T15:14:59;17.80;99.90
12520;DHT22;6325;49.540;8.364;2023-08-06T15:17:28;18.30;99.90
12520;DHT22;6325;49.540;8.364;2023-08-06T15:19:56;18.20;99.90
12520;DHT22;6325;49.540;8.364;2023-08-06T15:22:24;18.40;99.90
12520;DHT22;6325;49.540;8.364;2023-08-06T15:24:51;18.20;99.90
12520;DHT22;6325;49.540;8.364;2023-08-06T15:27:17;18.80;99.90
12520;DHT22;6325;49.540;8.364;2023-08-06T15:29:44;18.30;99.90
12520;DHT22;6325;49.540;8.364;2023-08-06T15:32:11;18.40;99.90
12520;DHT22;6325;49.540;8.364;2023-08-06T15:34:40;18.40;99.90
12520;DHT22;6325;49.540;8.364;2023-08-06T15:37:07;17.80;99.90
12520;DHT22;6325;49.540;8.364;2023-08-06T15:39:34;18.90;99.90
12520;DHT22;6325;49.540;8.364;2023-08-06T15:42:01;18.40;99.90
12520;DHT22;6325;49.540;8.364;2023-08-06T15:44:28;18.40;99.90
12520;DHT22;6325;49.540;8.364;2023-08-06T15:46:54;18.80;99.90